Time;durP1;ratioP1;P1;durP2;ratioP2;P2;SDS_P1;SDS_P2;PMS_P1;PMS_P2;Temp;Humidity;BMP_temperature;BMP_pressure;BME280_temperature;BME280_humidity;BME280_pressure;Samples;Min_cycle;Max_cycle;Signal;HPM_P1;HPM_P2
2021/05/29 00:01:18;;;;;;;8.50;6.53;;;10.10;99.90;;;;;;5023095;28;20183;-81
2021/05/29 00:03:43;;;;;;;7.80;6.60;;;10.20;99.90;;;;;;5023958;28;20203;-80
2021/05/29 00:06:09;;;;;;;8.37;6.63;;;10.20;99.90;;;;;;5022654;28;20233;-81
2021/05/29 00:08:35;;;;;;;8.50;6.17;;;;;;;;;;5024564;28;20232;-81
2021/05/29 00:11:02;;;;;;;6.90;5.57;;;10.10;99.90;;;;;;5023836;28;20186;-81
2021/05/29 00:13:29;;;;;;;7.53;6.43;;;10.00;99.90;;;;;;5023724;28;20237;-81
2021/05/29 00:15:55;;;;;;;8.57;6.60;;;10.00;99.90;;;;;;5025793;28;20168;-81
2021/05/29 00:18:21;;;;;;;7.37;6.07;;;10.00;99.90;;;;;;5026123;28;20176;-81
2021/05/29 00:20:47;;;;;;;7.60;6.27;;;10.00;99.90;;;;;;5023392;28;20183;-81
2021/05/29 00:23:14;;;;;;;9.97;6.77;;;9.90;99.90;;;;;;5022631;28;20267;-81
2021/05/29 00:25:41;;;;;;;8.17;6.47;;;9.80;99.90;;;;;;5023332;28;20202;-80
2021/05/29 00:28:07;;;;;;;8.33;6.30;;;9.80;99.90;;;;;;5024356;28;20230;-81
2021/05/29 00:30:32;;;;;;;8.07;5.93;;;9.80;99.90;;;;;;5022972;28;20230;-81
2021/05/29 00:32:58;;;;;;;7.20;6.50;;;9.80;99.90;;;;;;5023373;28;20175;-81
2021/05/29 00:35:24;;;;;;;10.10;6.63;;;9.80;99.90;;;;;;5030481;28;20233;-80
2021/05/29 00:37:50;;;;;;;8.73;6.70;;;9.80;99.90;;;;;;5026252;28;20178;-81
2021/05/29 00:40:16;;;;;;;11.93;7.23;;;9.80;99.90;;;;;;5028955;28;20181;-80
2021/05/29 00:42:42;;;;;;;8.67;6.60;;;9.60;99.90;;;;;;5031240;28;20178;-80
2021/05/29 00:45:08;;;;;;;7.57;6.27;;;9.60;99.90;;;;;;5027523;28;20190;-80
2021/05/29 00:47:34;;;;;;;11.43;6.93;;;9.50;99.90;;;;;;5025222;28;20179;-80
2021/05/29 00:50:06;;;;;;;9.20;6.47;;;9.60;99.90;;;;;;5024818;28;20211;-80
2021/05/29 00:52:34;;;;;;;9.20;7.30;;;9.60;99.90;;;;;;5026340;28;20293;-80
2021/05/29 00:55:04;;;;;;;9.13;7.00;;;9.50;99.90;;;;;;5026506;28;20614;-80
2021/05/29 00:57:30;;;;;;;9.47;6.47;;;9.50;99.90;;;;;;5025633;28;20520;-80
2021/05/29 00:59:55;;;;;;;8.43;6.87;;;9.50;99.90;;;;;;5025078;28;20253;-80
2021/05/29 01:02:21;;;;;;;8.57;7.37;;;9.50;99.90;;;;;;5024090;28;20186;-80
2021/05/29 01:04:47;;;;;;;9.53;6.93;;;9.50;99.90;;;;;;5025881;28;20210;-80
2021/05/29 01:07:15;;;;;;;7.10;6.40;;;9.50;99.90;;;;;;5026654;28;20707;-80
2021/05/29 01:09:42;;;;;;;8.57;7.30;;;9.50;99.90;;;;;;5026896;28;20285;-80
2021/05/29 01:12:17;;;;;;;8.60;7.10;;;9.50;99.90;;;;;;5027781;28;20205;-80
2021/05/29 01:14:51;;;;;;;9.30;7.70;;;9.50;99.90;;;;;;5027406;28;20202;-80
2021/05/29 01:17:17;;;;;;;7.33;6.57;;;9.50;99.90;;;;;;5025567;28;20166;-80
2021/05/29 01:19:42;;;;;;;7.70;6.77;;;9.50;99.90;;;;;;5025429;28;20544;-80
2021/05/29 01:22:09;;;;;;;7.00;6.23;;;9.40;99.90;;;;;;5030622;28;20183;-81
2021/05/29 01:24:37;;;;;;;9.67;6.77;;;9.40;99.90;;;;;;5024126;28;20304;-81
2021/05/29 01:27:03;;;;;;;7.60;6.40;;;9.40;99.90;;;;;;5023928;28;20186;-80
2021/05/29 01:29:29;;;;;;;11.63;7.17;;;9.30;99.90;;;;;;5024816;28;20661;-80
2021/05/29 01:32:01;;;;;;;8.77;6.93;;;9.30;99.90;;;;;;5024558;28;20221;-81
2021/05/29 01:34:33;;;;;;;9.80;7.87;;;9.30;99.90;;;;;;5023557;28;20195;-80
2021/05/29 01:37:02;;;;;;;10.53;7.30;;;9.30;99.90;;;;;;5023181;28;20183;-81
2021/05/29 01:39:27;;;;;;;9.73;7.13;;;9.20;99.90;;;;;;5023841;28;20182;-81
2021/05/29 01:41:53;;;;;;;7.93;6.27;;;9.20;99.90;;;;;;5024544;28;20189;-80
2021/05/29 01:44:22;;;;;;;11.50;6.83;;;9.10;99.90;;;;;;5025422;28;20218;-80
2021/05/29 01:46:48;;;;;;;8.93;7.07;;;9.10;99.90;;;;;;5025035;28;20245;-80
2021/05/29 01:49:14;;;;;;;13.07;7.20;;;9.10;99.90;;;;;;5024202;28;20198;-80
2021/05/29 01:51:39;;;;;;;8.63;6.83;;;9.00;99.90;;;;;;5025931;28;20175;-80
2021/05/29 01:54:05;;;;;;;8.23;7.10;;;9.00;99.90;;;;;;5024823;28;20196;-81
2021/05/29 01:56:31;;;;;;;7.63;6.77;;;9.00;99.90;;;;;;5024129;28;20186;-80
2021/05/29 01:58:57;;;;;;;7.40;6.37;;;8.90;99.90;;;;;;5024976;28;20210;-80
2021/05/29 02:01:22;;;;;;;8.67;6.87;;;8.90;99.90;;;;;;5023927;28;20180;-80
2021/05/29 02:03:48;;;;;;;10.33;7.37;;;8.90;99.90;;;;;;5023680;28;20203;-80
2021/05/29 02:06:15;;;;;;;8.93;6.90;;;8.90;99.90;;;;;;5022950;28;20183;-80
2021/05/29 02:08:41;;;;;;;9.60;6.87;;;8.90;99.90;;;;;;5024011;28;20209;-80
2021/05/29 02:11:07;;;;;;;7.63;6.43;;;8.80;99.90;;;;;;5024868;28;20175;-80
2021/05/29 02:13:35;;;;;;;8.57;6.93;;;8.80;99.90;;;;;;5023611;28;20205;-80
2021/05/29 02:16:02;;;;;;;8.37;6.70;;;8.80;99.90;;;;;;5024857;28;20175;-80
2021/05/29 02:18:28;;;;;;;8.07;6.63;;;8.80;99.90;;;;;;5025103;28;20173;-80
2021/05/29 02:21:06;;;;;;;9.73;7.00;;;8.70;99.90;;;;;;5024620;28;20250;-80
2021/05/29 02:23:36;;;;;;;9.53;7.07;;;8.70;99.90;;;;;;5023230;28;20167;-80
2021/05/29 02:26:06;;;;;;;11.63;7.10;;;8.70;99.90;;;;;;5024524;28;20277;-80
2021/05/29 02:28:33;;;;;;;9.37;7.30;;;8.70;99.90;;;;;;5023406;28;20175;-80
2021/05/29 02:30:59;;;;;;;10.20;7.40;;;8.70;99.90;;;;;;5024704;28;20163;-80
2021/05/29 02:33:25;;;;;;;11.60;7.87;;;8.70;99.90;;;;;;5023538;28;20176;-80
2021/05/29 02:35:52;;;;;;;9.00;7.47;;;8.60;99.90;;;;;;5023541;28;20175;-80
2021/05/29 02:38:18;;;;;;;9.27;7.53;;;8.60;99.90;;;;;;5024509;28;20168;-80
2021/05/29 02:40:45;;;;;;;10.80;6.97;;;8.60;99.90;;;;;;5022796;28;20171;-80
2021/05/29 02:43:11;;;;;;;10.17;7.87;;;8.60;99.90;;;;;;5023965;28;20319;-80
2021/05/29 02:45:39;;;;;;;9.20;7.20;;;8.60;99.90;;;;;;5023291;28;20223;-80
2021/05/29 02:48:06;;;;;;;9.17;7.23;;;8.60;99.90;;;;;;5024061;28;20183;-80
2021/05/29 02:50:32;;;;;;;8.60;6.87;;;8.60;99.90;;;;;;5023492;28;20488;-80
2021/05/29 02:52:57;;;;;;;13.37;7.83;;;8.60;99.90;;;;;;5022640;28;20176;-80
2021/05/29 02:55:23;;;;;;;10.17;7.47;;;8.60;99.90;;;;;;5023081;28;20203;-81
2021/05/29 02:57:57;;;;;;;8.03;6.63;;;8.70;99.90;;;;;;5025475;28;20237;-81
2021/05/29 03:00:29;;;;;;;8.60;7.10;;;8.70;99.90;;;;;;5025054;28;20194;-79
2021/05/29 03:02:54;;;;;;;9.10;7.37;;;8.80;99.90;;;;;;5025408;28;20178;-80
2021/05/29 03:05:21;;;;;;;9.97;7.70;;;8.80;99.90;;;;;;5025446;28;20222;-80
2021/05/29 03:07:47;;;;;;;8.97;7.23;;;8.80;99.90;;;;;;5024238;28;20646;-80
2021/05/29 03:10:14;;;;;;;10.27;7.23;;;8.80;99.90;;;;;;5025064;28;20207;-80
2021/05/29 03:12:40;;;;;;;9.60;7.33;;;8.80;99.90;;;;;;5033540;28;20170;-80
2021/05/29 03:15:09;;;;;;;12.03;7.73;;;8.80;99.90;;;;;;5023288;28;20206;-81
2021/05/29 03:17:35;;;;;;;8.47;7.10;;;8.80;99.90;;;;;;5023025;28;20202;-81
2021/05/29 03:20:01;;;;;;;8.27;6.80;;;8.70;99.90;;;;;;5024765;28;20179;-80
2021/05/29 03:22:27;;;;;;;7.73;6.80;;;8.70;99.90;;;;;;5023933;28;20179;-81
2021/05/29 03:24:52;;;;;;;8.67;7.10;;;8.80;99.90;;;;;;5023635;28;20214;-81
2021/05/29 03:27:18;;;;;;;8.33;7.13;;;8.80;99.90;;;;;;5030841;28;20186;-81
2021/05/29 03:29:45;;;;;;;8.20;7.23;;;8.80;99.90;;;;;;5034050;28;20201;-81
2021/05/29 03:32:12;;;;;;;9.63;6.90;;;8.70;99.90;;;;;;5029223;28;20410;-81
2021/05/29 03:34:37;;;;;;;10.30;7.53;;;8.70;99.90;;;;;;5024105;28;20434;-80
2021/05/29 03:37:04;;;;;;;8.93;7.43;;;8.70;99.90;;;;;;5025212;28;20175;-80
2021/05/29 03:39:30;;;;;;;8.73;7.50;;;8.80;99.90;;;;;;5024220;28;20175;-80
2021/05/29 03:41:55;;;;;;;10.40;7.87;;;8.80;99.90;;;;;;5023159;28;20207;-80
2021/05/29 03:44:21;;;;;;;8.73;7.20;;;8.80;99.90;;;;;;5022658;28;20214;-80
2021/05/29 03:46:47;;;;;;;8.30;6.70;;;8.80;99.90;;;;;;5022834;28;20198;-80
2021/05/29 03:49:12;;;;;;;10.00;7.43;;;8.80;99.90;;;;;;5023087;28;20246;-80
2021/05/29 03:51:38;;;;;;;8.60;7.40;;;8.80;99.90;;;;;;5022296;28;20179;-80
2021/05/29 03:54:04;;;;;;;8.30;6.93;;;8.90;99.90;;;;;;5023216;28;20190;-80
2021/05/29 03:56:29;;;;;;;9.10;7.13;;;8.90;99.90;;;;;;5022898;28;20174;-80
2021/05/29 03:58:55;;;;;;;8.77;7.57;;;8.90;99.90;;;;;;5021966;28;20223;-80
2021/05/29 04:01:21;;;;;;;8.77;7.00;;;9.00;99.90;;;;;;5022995;28;20201;-80
2021/05/29 04:03:47;;;;;;;8.17;7.33;;;9.00;99.90;;;;;;5023481;28;20199;-80
2021/05/29 04:06:12;;;;;;;8.50;6.83;;;8.90;99.90;;;;;;5022686;28;20184;-80
2021/05/29 04:08:38;;;;;;;9.17;7.47;;;8.90;99.90;;;;;;5021811;28;20240;-80
2021/05/29 04:11:04;;;;;;;7.73;6.90;;;8.90;99.90;;;;;;5022883;28;20173;-80
2021/05/29 04:13:30;;;;;;;8.30;7.40;;;8.90;99.90;;;;;;5021919;28;20180;-81
2021/05/29 04:15:55;;;;;;;9.93;7.87;;;8.90;99.90;;;;;;5021684;28;20183;-80
2021/05/29 04:18:21;;;;;;;9.27;7.13;;;9.00;99.90;;;;;;5021607;28;20177;-81
2021/05/29 04:20:46;;;;;;;9.20;7.20;;;9.00;99.90;;;;;;5022272;28;20188;-80
2021/05/29 04:23:12;;;;;;;10.00;5.93;;;9.00;99.90;;;;;;5021236;28;20194;-80
2021/05/29 04:25:38;;;;;;;8.20;6.60;;;9.00;99.90;;;;;;5021335;28;20211;-80
2021/05/29 04:28:04;;;;;;;6.67;5.97;;;9.10;99.90;;;;;;5021406;28;20183;-80
2021/05/29 04:30:30;;;;;;;10.20;6.63;;;9.00;99.90;;;;;;5022505;28;20219;-80
2021/05/29 04:32:57;;;;;;;8.97;5.97;;;9.00;99.90;;;;;;5020838;28;20226;-81
2021/05/29 04:35:23;;;;;;;8.70;6.80;;;9.00;99.90;;;;;;5021242;28;20206;-80
2021/05/29 04:37:50;;;;;;;7.67;6.63;;;9.10;99.90;;;;;;5022089;28;20179;-80
2021/05/29 04:40:17;;;;;;;7.37;6.27;;;9.20;99.90;;;;;;5021381;28;20191;-80
2021/05/29 04:42:43;;;;;;;11.80;6.80;;;9.30;99.90;;;;;;5022264;28;20176;-80
2021/05/29 04:45:11;;;;;;;11.00;5.97;;;9.30;99.90;;;;;;5020278;28;20196;-80
2021/05/29 04:47:38;;;;;;;8.30;5.77;;;9.30;99.90;;;;;;5021888;28;20183;-80
2021/05/29 04:50:05;;;;;;;7.40;6.17;;;9.30;99.90;;;;;;5021614;28;20588;-80
2021/05/29 04:52:31;;;;;;;7.20;5.90;;;9.50;99.90;;;;;;5020847;28;20175;-80
2021/05/29 04:54:57;;;;;;;6.97;5.97;;;9.50;99.90;;;;;;5021202;28;20197;-80
2021/05/29 04:57:23;;;;;;;7.53;5.80;;;9.60;99.90;;;;;;5021470;28;20182;-80
2021/05/29 04:59:48;;;;;;;8.13;5.57;;;9.70;99.90;;;;;;5021580;28;20196;-80
2021/05/29 05:02:14;;;;;;;8.23;5.23;;;9.70;99.90;;;;;;5020897;28;20252;-80
2021/05/29 05:04:40;;;;;;;6.80;4.90;;;9.70;99.90;;;;;;5022688;28;20206;-80
2021/05/29 05:07:05;;;;;;;8.67;5.50;;;9.80;99.90;;;;;;5022875;28;20233;-80
2021/05/29 05:09:31;;;;;;;6.10;4.90;;;9.80;99.90;;;;;;5022734;28;20214;-80
2021/05/29 05:11:57;;;;;;;6.17;4.97;;;9.80;99.90;;;;;;5021368;28;20187;-81
2021/05/29 05:14:22;;;;;;;10.50;5.27;;;9.80;99.90;;;;;;5020493;28;20202;-81
2021/05/29 05:16:48;;;;;;;5.53;4.70;;;9.80;99.90;;;;;;5021467;28;20240;-81
2021/05/29 05:19:14;;;;;;;5.33;4.20;;;9.80;99.90;;;;;;5023345;28;20175;-81
2021/05/29 05:21:40;;;;;;;6.43;4.73;;;9.80;99.90;;;;;;5023127;28;20233;-81
2021/05/29 05:24:06;;;;;;;4.70;4.20;;;9.80;99.90;;;;;;5028349;28;20207;-80
2021/05/29 05:26:32;;;;;;;6.43;4.67;;;9.90;99.90;;;;;;5026199;28;20246;-80
2021/05/29 05:28:58;;;;;;;5.57;4.67;;;9.90;99.90;;;;;;5026932;28;20251;-80
2021/05/29 05:31:24;;;;;;;5.00;4.23;;;10.00;99.90;;;;;;5025455;28;20241;-80
2021/05/29 05:33:51;;;;;;;4.90;4.40;;;10.00;99.90;;;;;;5027800;28;20195;-80
2021/05/29 05:36:17;;;;;;;4.83;4.33;;;10.00;99.90;;;;;;5031632;28;20238;-80
2021/05/29 05:38:47;;;;;;;5.10;4.47;;;10.10;99.90;;;;;;5029505;28;20178;-80
2021/05/29 05:41:14;;;;;;;4.87;4.17;;;10.20;99.90;;;;;;5025003;28;20175;-81
2021/05/29 05:43:40;;;;;;;6.40;3.97;;;10.20;99.90;;;;;;5024698;28;20357;-80
2021/05/29 05:46:07;;;;;;;4.97;3.83;;;10.30;99.90;;;;;;5024127;28;20244;-80
2021/05/29 05:48:32;;;;;;;6.57;4.00;;;10.40;99.90;;;;;;5025245;28;20175;-80
2021/05/29 05:51:00;;;;;;;5.80;3.30;;;10.40;99.90;;;;;;5023714;28;20187;-80
2021/05/29 05:53:28;;;;;;;5.37;3.67;;;10.40;99.90;;;;;;5024069;28;20210;-80
2021/05/29 05:55:59;;;;;;;7.10;3.80;;;10.30;99.90;;;;;;5025179;28;20170;-80
2021/05/29 05:58:25;;;;;;;4.30;3.87;;;10.40;99.90;;;;;;5025880;28;20155;-80
2021/05/29 06:00:51;;;;;;;5.53;3.87;;;10.30;99.90;;;;;;5024740;28;20186;-80
2021/05/29 06:03:17;;;;;;;4.60;3.27;;;10.40;99.90;;;;;;5022461;28;20209;-80
2021/05/29 06:05:43;;;;;;;4.20;3.73;;;10.40;99.90;;;;;;5022319;28;20637;-80
2021/05/29 06:08:08;;;;;;;5.60;3.63;;;10.30;99.90;;;;;;5032426;28;20175;-81
2021/05/29 06:10:34;;;;;;;5.97;3.87;;;10.40;99.90;;;;;;5023496;28;20286;-80
2021/05/29 06:13:00;;;;;;;5.87;3.87;;;10.40;99.90;;;;;;5023691;28;20253;-81
2021/05/29 06:18:28;;;;;;;5.43;3.93;;;10.50;99.90;;;;;;5024659;28;20185;-81
2021/05/29 06:20:53;;;;;;;3.93;3.50;;;10.50;99.90;;;;;;5023625;28;20158;-81
2021/05/29 06:23:19;;;;;;;6.23;3.77;;;10.60;99.90;;;;;;5023257;28;20201;-81
2021/05/29 06:25:45;;;;;;;6.40;3.90;;;10.70;99.90;;;;;;5023197;28;20221;-81
2021/05/29 06:28:10;;;;;;;4.53;4.00;;;10.90;99.90;;;;;;5023907;28;20167;-80
2021/05/29 06:30:37;;;;;;;7.50;3.57;;;11.00;99.90;;;;;;5023574;28;20207;-81
2021/05/29 06:33:04;;;;;;;3.57;3.20;;;11.00;99.90;;;;;;5024377;28;20182;-81
2021/05/29 06:35:30;;;;;;;5.03;3.23;;;11.10;99.90;;;;;;5024966;28;20183;-81
2021/05/29 06:37:56;;;;;;;5.50;3.87;;;11.10;99.90;;;;;;5026352;28;20343;-81
2021/05/29 06:40:22;;;;;;;4.00;3.60;;;11.20;99.90;;;;;;5026844;28;20174;-81
2021/05/29 06:42:48;;;;;;;5.37;3.50;;;11.10;99.90;;;;;;5028475;28;20223;-81
2021/05/29 06:45:14;;;;;;;5.47;3.73;;;11.30;99.90;;;;;;4999618;28;20322;-81
2021/05/29 06:47:40;;;;;;;6.07;3.90;;;11.40;99.90;;;;;;5027305;28;20204;-80
2021/05/29 06:50:08;;;;;;;4.27;3.87;;;11.50;99.90;;;;;;5028203;28;20202;-81
2021/05/29 06:52:35;;;;;;;4.47;3.70;;;11.50;99.90;;;;;;5028986;28;20182;-80
2021/05/29 07:00:34;;;;;;;3.10;2.80;;;11.90;99.90;;;;;;5021964;28;20190;-81
2021/05/29 07:02:59;;;;;;;8.13;3.20;;;12.00;99.90;;;;;;5021870;28;20641;-81
2021/05/29 07:05:25;;;;;;;3.30;3.00;;;12.00;99.90;;;;;;5023756;28;20527;-81
2021/05/29 07:07:51;;;;;;;3.27;2.97;;;12.00;99.90;;;;;;5023675;28;20171;-82
2021/05/29 07:10:16;;;;;;;3.77;2.87;;;12.10;99.90;;;;;;5022031;28;20325;-81
2021/05/29 07:12:42;;;;;;;3.10;2.70;;;12.20;99.90;;;;;;5022850;28;20177;-81
2021/05/29 07:15:09;;;;;;;5.43;2.77;;;12.30;99.90;;;;;;5022257;28;20293;-81
2021/05/29 07:17:39;;;;;;;4.83;2.83;;;12.40;99.90;;;;;;5024721;28;20167;-83
2021/05/29 07:20:06;;;;;;;5.13;3.10;;;12.50;99.90;;;;;;5023126;28;20241;-82
2021/05/29 07:22:32;;;;;;;3.23;2.93;;;12.60;99.90;;;;;;5023568;28;20202;-82
2021/05/29 07:24:57;;;;;;;3.13;2.63;;;12.80;99.90;;;;;;5023110;28;20269;-82
2021/05/29 07:27:23;;;;;;;3.80;2.20;;;13.00;99.90;;;;;;5022177;28;20179;-82
2021/05/29 07:29:49;;;;;;;4.00;2.63;;;13.30;99.90;;;;;;5023932;28;20258;-81
2021/05/29 07:32:15;;;;;;;2.83;2.50;;;13.60;99.90;;;;;;5024000;28;20199;-81
2021/05/29 07:34:41;;;;;;;2.63;2.23;;;13.90;99.90;;;;;;5023629;28;20214;-81
2021/05/29 07:37:08;;;;;;;4.90;2.60;;;14.30;99.90;;;;;;5024160;28;20208;-81
2021/05/29 07:39:35;;;;;;;2.63;2.13;;;14.40;99.90;;;;;;5022569;28;20175;-81
2021/05/29 07:42:01;;;;;;;2.43;2.00;;;14.60;99.90;;;;;;5027800;28;20659;-81
2021/05/29 07:44:27;;;;;;;2.63;1.80;;;14.60;99.90;;;;;;5017240;28;20608;-81
2021/05/29 07:46:52;;;;;;;3.13;2.10;;;14.40;99.90;;;;;;5017149;28;20186;-80
2021/05/29 07:49:18;;;;;;;2.87;1.97;;;14.40;99.90;;;;;;5019653;28;20567;-81
2021/05/29 07:51:44;;;;;;;2.40;2.10;;;14.50;99.90;;;;;;5021358;28;20175;-80
2021/05/29 07:54:11;;;;;;;3.30;1.83;;;14.70;99.90;;;;;;5019267;28;20218;-80
2021/05/29 07:56:37;;;;;;;2.53;2.00;;;14.70;99.90;;;;;;5018211;28;20179;-80
2021/05/29 07:59:10;;;;;;;3.50;2.13;;;14.50;99.90;;;;;;5020136;28;20203;-81
2021/05/29 08:01:35;;;;;;;3.60;2.20;;;14.70;99.90;;;;;;5020656;28;20155;-81
2021/05/29 08:04:01;;;;;;;2.13;1.90;;;14.80;99.90;;;;;;5018813;28;20337;-81
2021/05/29 08:06:27;;;;;;;2.10;1.90;;;14.80;99.90;;;;;;5017818;28;20187;-80
2021/05/29 08:08:53;;;;;;;2.27;2.03;;;14.90;99.90;;;;;;5019309;28;20210;-81
2021/05/29 08:11:24;;;;;;;4.30;2.10;;;14.80;99.90;;;;;;5022681;28;20270;-81
2021/05/29 08:13:55;;;;;;;2.43;1.83;;;14.70;99.90;;;;;;5022256;28;20201;-81
2021/05/29 08:16:23;;;;;;;3.37;2.30;;;14.70;99.90;;;;;;5020325;28;20213;-81
2021/05/29 08:18:49;;;;;;;3.33;1.90;;;14.70;99.90;;;;;;5018516;28;20163;-81
2021/05/29 08:21:15;;;;;;;2.70;2.10;;;14.90;99.90;;;;;;5018106;28;20532;-81
2021/05/29 08:23:41;;;;;;;2.40;2.20;;;14.80;99.90;;;;;;5015859;28;20199;-81
2021/05/29 08:26:08;;;;;;;2.20;2.00;;;14.80;99.90;;;;;;5015788;28;20529;-82
2021/05/29 08:28:34;;;;;;;4.27;2.30;;;15.20;99.90;;;;;;5016539;28;20641;-81
2021/05/29 08:31:01;;;;;;;2.33;2.13;;;15.90;99.90;;;;;;5014785;28;20202;-81
2021/05/29 08:33:26;;;;;;;2.40;2.03;;;16.40;99.90;;;;;;5015786;28;20179;-82
2021/05/29 08:35:52;;;;;;;2.33;2.07;;;16.90;99.90;;;;;;5015350;28;20185;-81
2021/05/29 08:38:18;;;;;;;2.13;1.77;;;16.80;99.90;;;;;;5018026;28;20694;-81
2021/05/29 08:40:44;;;;;;;3.67;2.20;;;16.80;99.90;;;;;;5015820;28;20175;-82
2021/05/29 08:43:10;;;;;;;5.03;2.07;;;16.50;99.90;;;;;;5014777;28;20182;-82
2021/05/29 08:45:36;;;;;;;3.70;1.90;;;16.30;99.90;;;;;;5027045;28;20203;-82
2021/05/29 08:48:02;;;;;;;2.63;2.43;;;16.40;99.90;;;;;;5022659;28;20234;-81
2021/05/29 08:50:28;;;;;;;2.70;1.90;;;16.30;99.90;;;;;;5020702;28;20199;-81
2021/05/29 08:52:54;;;;;;;2.10;2.00;;;16.30;99.90;;;;;;5019470;28;20182;-82
2021/05/29 08:55:20;;;;;;;2.10;1.63;;;16.40;99.90;;;;;;5018664;28;20206;-81
2021/05/29 08:57:49;;;;;;;2.73;1.83;;;16.50;99.90;;;;;;5020085;28;20266;-84
2021/05/29 09:00:22;;;;;;;1.70;1.60;;;16.70;99.90;;;;;;5025614;28;20188;-80
2021/05/29 09:03:17;;;;;;;3.67;1.70;;;16.90;99.90;;;;;;5024446;28;20180;-81
2021/05/29 09:05:52;;;;;;;3.90;1.87;;;17.20;99.90;;;;;;5014069;28;20212;-81
2021/05/29 09:08:21;;;;;;;2.30;1.60;;;17.10;99.90;;;;;;5024473;28;20190;-81
2021/05/29 09:10:56;;;;;;;2.43;1.80;;;17.40;99.90;;;;;;5025805;28;20219;-80
2021/05/29 09:13:26;;;;;;;2.93;1.50;;;17.70;99.90;;;;;;5024115;28;20236;-82
2021/05/29 09:15:57;;;;;;;3.23;1.87;;;18.20;99.00;;;;;;5027326;28;20181;-81
2021/05/29 09:18:42;;;;;;;1.63;1.53;;;18.30;99.90;;;;;;5023757;28;20169;-82
2021/05/29 09:21:22;;;;;;;2.70;1.80;;;19.10;99.90;;;;;;5026310;28;20165;-80
2021/05/29 09:23:55;;;;;;;1.80;1.70;;;19.00;98.40;;;;;;5025621;28;20618;-80
2021/05/29 09:26:22;;;;;;;1.97;1.80;;;18.60;95.60;;;;;;5026668;28;20170;-80
2021/05/29 09:28:49;;;;;;;2.83;2.00;;;18.50;99.70;;;;;;5026605;28;20207;-80
2021/05/29 09:31:16;;;;;;;1.77;1.60;;;18.90;97.20;;;;;;5027403;28;20206;-81
2021/05/29 09:33:43;;;;;;;3.60;1.90;;;19.00;94.90;;;;;;5026863;28;20212;-82
2021/05/29 09:36:12;;;;;;;2.93;2.10;;;18.60;96.50;;;;;;5025123;28;20273;-81
2021/05/29 09:38:47;;;;;;;2.20;1.67;;;18.80;94.40;;;;;;5025890;28;20177;-81
2021/05/29 09:41:31;;;;;;;3.10;1.80;;;19.00;94.40;;;;;;5027342;28;20201;-81
2021/05/29 09:44:08;;;;;;;2.20;2.00;;;19.70;95.40;;;;;;5025607;28;20210;-80
2021/05/29 09:46:54;;;;;;;2.37;1.70;;;20.20;91.80;;;;;;5024594;28;20209;-81
2021/05/29 09:49:21;;;;;;;2.87;1.57;;;20.00;91.40;;;;;;5025455;28;20194;-82
2021/05/29 09:51:46;;;;;;;1.60;1.50;;;20.00;89.30;;;;;;5031357;28;20198;-81
2021/05/29 09:54:12;;;;;;;1.37;1.23;;;19.90;84.80;;;;;;5028145;28;20657;-81
2021/05/29 09:56:44;;;;;;;1.43;1.33;;;19.90;86.30;;;;;;5028866;28;20206;-80
2021/05/29 09:59:17;;;;;;;1.60;1.30;;;19.90;82.30;;;;;;5031154;28;20175;-81
2021/05/29 10:01:50;;;;;;;1.73;1.63;;;20.00;80.20;;;;;;5035871;28;20171;-81
2021/05/29 10:04:22;;;;;;;2.43;2.00;;;20.30;85.10;;;;;;5034886;28;20191;-81
2021/05/29 10:06:56;;;;;;;3.10;2.20;;;19.60;81.00;;;;;;5029256;28;20225;-81
2021/05/29 10:09:23;;;;;;;2.13;1.93;;;19.50;84.90;;;;;;5023379;28;20201;-82
2021/05/29 10:11:48;;;;;;;4.67;1.87;;;19.90;84.60;;;;;;5024885;28;20535;-82
2021/05/29 10:14:14;;;;;;;6.60;1.73;;;20.10;78.00;;;;;;5024995;28;20191;-81
2021/05/29 10:16:41;;;;;;;2.43;1.80;;;20.50;90.70;;;;;;5023548;28;20175;-82
2021/05/29 10:19:08;;;;;;;2.80;1.90;;;20.80;78.30;;;;;;5024470;28;20183;-82
2021/05/29 10:21:36;;;;;;;4.23;2.20;;;20.60;83.60;;;;;;5024461;28;20182;-82
2021/05/29 10:24:04;;;;;;;2.20;2.00;;;20.50;80.50;;;;;;5023590;28;20214;-81
2021/05/29 10:26:30;;;;;;;2.30;2.10;;;20.40;77.20;;;;;;5022228;28;20183;-81
2021/05/29 10:28:57;;;;;;;3.53;3.20;;;20.70;82.10;;;;;;5024998;28;20702;-81
2021/05/29 10:31:28;;;;;;;5.73;3.10;;;20.60;80.40;;;;;;5023126;28;20178;-80
2021/05/29 10:33:54;;;;;;;2.00;1.70;;;20.40;81.20;;;;;;5024404;28;20242;-81
2021/05/29 10:36:39;;;;;;;10.63;2.73;;;20.60;80.30;;;;;;5023637;28;20175;-81
2021/05/29 10:39:28;;;;;;;2.00;1.80;;;21.00;78.10;;;;;;5020944;28;20257;-81
2021/05/29 10:41:57;;;;;;;3.40;1.77;;;21.10;75.90;;;;;;5018265;28;20171;-81
2021/05/29 10:44:39;;;;;;;3.87;2.03;;;21.40;75.60;;;;;;5017808;28;20670;-77
2021/05/29 10:47:09;;;;;;;3.90;1.80;;;21.80;75.20;;;;;;5019918;28;20246;-80
2021/05/29 10:49:47;;;;;;;2.27;1.87;;;22.10;68.60;;;;;;5018255;28;20751;-79
2021/05/29 10:52:35;;;;;;;2.03;1.67;;;22.20;66.30;;;;;;5019677;28;20253;-79
2021/05/29 10:55:14;;;;;;;1.60;1.50;;;22.00;70.20;;;;;;5018192;28;20681;-79
2021/05/29 10:57:55;;;;;;;5.73;2.33;;;22.10;67.90;;;;;;5018227;28;20186;-80
2021/05/29 11:00:39;;;;;;;2.00;1.80;;;22.00;64.50;;;;;;5018241;28;20183;-80
2021/05/29 11:03:25;;;;;;;3.00;1.97;;;21.80;64.30;;;;;;5018031;28;20184;-79
2021/05/29 11:05:52;;;;;;;3.13;1.80;;;21.00;63.80;;;;;;5023379;28;20254;-80
2021/05/29 11:08:50;;;;;;;2.13;1.80;;;20.60;64.90;;;;;;5024686;28;20186;-80
2021/05/29 11:14:29;;;;;;;2.57;1.50;;;19.90;70.50;;;;;;5021037;28;20227;-79
2021/05/29 11:16:56;;;;;;;2.33;1.43;;;21.20;75.30;;;;;;5018932;28;20163;-78
2021/05/29 11:19:28;;;;;;;2.30;1.60;;;22.40;68.80;;;;;;5020030;28;20198;-78
2021/05/29 11:22:01;;;;;;;2.20;2.00;;;22.80;65.70;;;;;;5018875;28;20647;-80
2021/05/29 11:24:31;;;;;;;2.00;1.70;;;23.10;64.70;;;;;;5018443;28;20215;-80
2021/05/29 11:27:03;;;;;;;1.83;1.67;;;22.90;61.00;;;;;;5023762;28;20183;-81
2021/05/29 11:29:29;;;;;;;3.43;1.77;;;22.20;61.70;;;;;;5027853;28;20205;-82
2021/05/29 11:31:56;;;;;;;1.60;1.47;;;22.00;68.60;;;;;;5016943;28;20203;-77
2021/05/29 11:34:22;;;;;;;3.70;1.80;;;21.50;67.80;;;;;;5017014;28;20217;-77
2021/05/29 11:36:51;;;;;;;2.73;1.80;;;21.00;66.20;;;;;;5020387;28;20251;-79
2021/05/29 11:39:19;;;;;;;2.20;1.57;;;21.50;69.30;;;;;;5018518;28;20187;-80
2021/05/29 11:41:44;;;;;;;3.37;1.80;;;21.70;65.50;;;;;;5019543;28;20194;-79
2021/05/29 11:44:21;;;;;;;3.63;2.17;;;22.80;61.10;;;;;;5019249;28;20204;-79
2021/05/29 11:46:47;;;;;;;2.37;1.90;;;22.90;60.30;;;;;;5019340;28;20177;-78
2021/05/29 11:49:14;;;;;;;3.87;2.00;;;22.90;63.90;;;;;;5019485;28;20211;-80
2021/05/29 11:51:45;;;;;;;2.10;1.70;;;23.50;62.00;;;;;;5026599;28;20183;-78
2021/05/29 11:54:14;;;;;;;2.57;1.80;;;23.90;63.00;;;;;;5018304;28;20199;-78
2021/05/29 11:56:48;;;;;;;2.00;1.67;;;24.50;60.10;;;;;;5020283;28;20184;-83
2021/05/29 11:59:15;;;;;;;2.20;2.00;;;24.50;60.30;;;;;;5021672;28;20183;-80
2021/05/29 12:01:44;;;;;;;3.33;2.00;;;23.70;57.50;;;;;;5024570;28;20186;-83
2021/05/29 12:04:11;;;;;;;1.80;1.70;;;22.10;64.70;;;;;;5024215;28;20232;-81
2021/05/29 12:06:49;;;;;;;3.43;1.90;;;20.90;59.80;;;;;;5023197;28;20181;-80
2021/05/29 12:09:24;;;;;;;3.53;1.50;;;19.80;62.60;;;;;;5020890;28;20554;-81
2021/05/29 12:12:06;;;;;;;1.73;1.43;;;19.30;64.60;;;;;;5020773;28;20181;-82
2021/05/29 12:14:37;;;;;;;1.87;1.30;;;19.80;59.00;;;;;;5021464;28;20693;-81
2021/05/29 12:17:11;;;;;;;1.33;1.23;;;21.90;58.10;;;;;;5023894;28;20179;-81
2021/05/29 12:19:52;;;;;;;1.70;1.30;;;23.40;55.00;;;;;;5027767;28;20184;-84
2021/05/29 12:22:26;;;;;;;1.93;1.37;;;24.60;52.10;;;;;;5022022;28;20179;-81
2021/05/29 12:24:59;;;;;;;1.90;1.37;;;25.10;55.70;;;;;;5021794;28;20218;-79
2021/05/29 12:27:27;;;;;;;1.50;1.20;;;25.70;54.60;;;;;;5021809;28;20527;-81
2021/05/29 12:30:04;;;;;;;2.90;1.30;;;25.90;52.20;;;;;;5029954;28;20203;-79
2021/05/29 12:32:37;;;;;;;3.20;1.50;;;25.60;52.30;;;;;;5021261;28;20224;-80
2021/05/29 12:35:04;;;;;;;1.50;1.00;;;25.50;51.00;;;;;;5024596;28;20211;-83
2021/05/29 12:37:31;;;;;;;2.77;1.37;;;25.90;53.50;;;;;;5024895;28;20209;-82
2021/05/29 12:40:11;;;;;;;1.43;1.20;;;26.00;57.10;;;;;;5024085;28;20190;-80
2021/05/29 12:42:44;;;;;;;1.87;1.40;;;25.60;54.10;;;;;;5025349;28;20189;-80
2021/05/29 12:45:25;;;;;;;1.70;1.20;;;25.60;56.00;;;;;;5025943;28;20197;-81
2021/05/29 12:48:02;;;;;;;1.50;1.37;;;25.40;52.70;;;;;;5025642;28;20185;-80
2021/05/29 12:50:30;;;;;;;1.60;1.00;;;26.00;53.00;;;;;;5024388;28;20202;-81
2021/05/29 12:53:13;;;;;;;2.53;1.43;;;27.00;48.50;;;;;;5025658;28;20186;-81
2021/05/29 12:55:41;;;;;;;1.63;1.30;;;26.10;49.80;;;;;;5026307;28;20301;-80
2021/05/29 12:58:14;;;;;;;4.40;1.30;;;25.90;49.80;;;;;;5025745;28;20198;-80
2021/05/29 13:00:57;;;;;;;1.57;1.37;;;25.30;48.50;;;;;;5034021;28;20198;-81
2021/05/29 13:09:25;;;;;;;2.40;1.40;;;23.80;51.30;;;;;;5045235;28;20517;-80
2021/05/29 13:11:51;;;;;;;3.53;1.50;;;22.30;56.30;;;;;;5047037;28;20150;-81
2021/05/29 13:14:26;;;;;;;12.53;5.33;;;22.90;56.10;;;;;;5033779;28;20198;-80